sensor_id;sensor_type;location;lat;lon;timestamp;P1;durP1;ratioP1;P2;durP2;ratioP2
53666;SDS011;39568;51.026;5.468;2022-09-20T00:01:16;3.63;;;2.25;;
53666;SDS011;39568;51.026;5.468;2022-09-20T00:03:46;8.07;;;2.55;;
53666;SDS011;39568;51.026;5.468;2022-09-20T00:06:17;5.57;;;2.40;;
53666;SDS011;39568;51.026;5.468;2022-09-20T00:08:46;9.43;;;2.00;;
53666;SDS011;39568;51.026;5.468;2022-09-20T00:11:17;13.80;;;4.32;;
53666;SDS011;39568;51.026;5.468;2022-09-20T00:13:45;5.60;;;2.38;;
53666;SDS011;39568;51.026;5.468;2022-09-20T00:16:14;5.95;;;2.70;;
53666;SDS011;39568;51.026;5.468;2022-09-20T00:18:46;6.13;;;2.38;;
53666;SDS011;39568;51.026;5.468;2022-09-20T00:21:14;9.50;;;2.78;;
53666;SDS011;39568;51.026;5.468;2022-09-20T00:23:48;7.53;;;2.95;;
53666;SDS011;39568;51.026;5.468;2022-09-20T00:26:22;9.90;;;2.05;;
53666;SDS011;39568;51.026;5.468;2022-09-20T00:28:49;7.13;;;2.60;;
53666;SDS011;39568;51.026;5.468;2022-09-20T00:31:16;20.75;;;3.25;;
53666;SDS011;39568;51.026;5.468;2022-09-20T00:33:43;7.28;;;2.78;;
53666;SDS011;39568;51.026;5.468;2022-09-20T00:36:28;9.10;;;3.22;;
53666;SDS011;39568;51.026;5.468;2022-09-20T00:38:57;13.18;;;3.05;;
53666;SDS011;39568;51.026;5.468;2022-09-20T00:41:25;6.72;;;2.58;;
53666;SDS011;39568;51.026;5.468;2022-09-20T00:43:53;4.47;;;2.95;;
53666;SDS011;39568;51.026;5.468;2022-09-20T00:46:22;10.85;;;2.92;;
53666;SDS011;39568;51.026;5.468;2022-09-20T00:48:51;15.00;;;3.90;;
53666;SDS011;39568;51.026;5.468;2022-09-20T00:51:22;11.90;;;2.95;;
53666;SDS011;39568;51.026;5.468;2022-09-20T00:53:53;20.55;;;3.80;;
53666;SDS011;39568;51.026;5.468;2022-09-20T00:56:25;9.73;;;3.47;;
53666;SDS011;39568;51.026;5.468;2022-09-20T00:58:59;11.32;;;3.88;;
53666;SDS011;39568;51.026;5.468;2022-09-20T01:01:39;14.32;;;3.05;;
53666;SDS011;39568;51.026;5.468;2022-09-20T01:04:11;17.27;;;3.67;;
53666;SDS011;39568;51.026;5.468;2022-09-20T01:06:45;8.75;;;2.67;;
53666;SDS011;39568;51.026;5.468;2022-09-20T01:09:15;15.35;;;2.85;;
53666;SDS011;39568;51.026;5.468;2022-09-20T01:11:42;11.27;;;3.13;;
53666;SDS011;39568;51.026;5.468;2022-09-20T01:14:09;13.75;;;3.72;;
53666;SDS011;39568;51.026;5.468;2022-09-20T01:16:39;6.20;;;3.33;;
53666;SDS011;39568;51.026;5.468;2022-09-20T01:19:07;5.78;;;3.30;;
53666;SDS011;39568;51.026;5.468;2022-09-20T01:21:55;10.18;;;3.70;;
53666;SDS011;39568;51.026;5.468;2022-09-20T01:24:24;4.35;;;3.70;;
53666;SDS011;39568;51.026;5.468;2022-09-20T01:26:59;13.15;;;3.40;;
53666;SDS011;39568;51.026;5.468;2022-09-20T01:29:43;10.13;;;3.08;;
53666;SDS011;39568;51.026;5.468;2022-09-20T01:32:27;6.63;;;3.13;;
53666;SDS011;39568;51.026;5.468;2022-09-20T01:35:03;14.35;;;4.05;;
53666;SDS011;39568;51.026;5.468;2022-09-20T01:37:34;11.07;;;3.25;;
53666;SDS011;39568;51.026;5.468;2022-09-20T01:40:09;15.00;;;5.28;;
53666;SDS011;39568;51.026;5.468;2022-09-20T01:42:42;11.73;;;4.57;;
53666;SDS011;39568;51.026;5.468;2022-09-20T01:45:17;8.35;;;4.43;;
53666;SDS011;39568;51.026;5.468;2022-09-20T01:47:50;10.90;;;4.28;;
53666;SDS011;39568;51.026;5.468;2022-09-20T01:50:28;7.82;;;4.68;;
53666;SDS011;39568;51.026;5.468;2022-09-20T01:53:21;15.57;;;5.22;;
53666;SDS011;39568;51.026;5.468;2022-09-20T02:02:15;12.57;;;6.53;;
53666;SDS011;39568;51.026;5.468;2022-09-20T02:05:15;14.02;;;6.28;;
53666;SDS011;39568;51.026;5.468;2022-09-20T02:08:06;11.45;;;6.45;;
53666;SDS011;39568;51.026;5.468;2022-09-20T02:11:03;17.80;;;6.85;;
53666;SDS011;39568;51.026;5.468;2022-09-20T02:13:40;11.68;;;6.65;;
53666;SDS011;39568;51.026;5.468;2022-09-20T02:16:27;23.52;;;6.85;;
53666;SDS011;39568;51.026;5.468;2022-09-20T02:19:18;11.95;;;5.93;;
53666;SDS011;39568;51.026;5.468;2022-09-20T02:21:58;26.88;;;8.13;;
53666;SDS011;39568;51.026;5.468;2022-09-20T02:24:38;18.23;;;6.57;;
53666;SDS011;39568;51.026;5.468;2022-09-20T02:27:12;15.45;;;5.75;;
53666;SDS011;39568;51.026;5.468;2022-09-20T02:29:51;16.67;;;6.25;;
53666;SDS011;39568;51.026;5.468;2022-09-20T02:32:32;15.30;;;5.10;;
53666;SDS011;39568;51.026;5.468;2022-09-20T02:37:56;19.23;;;6.97;;
53666;SDS011;39568;51.026;5.468;2022-09-20T02:40:44;14.25;;;5.68;;
53666;SDS011;39568;51.026;5.468;2022-09-20T02:43:25;15.00;;;6.80;;
53666;SDS011;39568;51.026;5.468;2022-09-20T02:46:00;10.13;;;5.30;;
53666;SDS011;39568;51.026;5.468;2022-09-20T02:48:35;10.98;;;6.32;;
53666;SDS011;39568;51.026;5.468;2022-09-20T02:51:16;19.02;;;6.38;;
53666;SDS011;39568;51.026;5.468;2022-09-20T02:53:52;13.93;;;6.57;;
53666;SDS011;39568;51.026;5.468;2022-09-20T02:56:29;17.20;;;6.90;;
53666;SDS011;39568;51.026;5.468;2022-09-20T02:59:04;10.73;;;7.13;;
53666;SDS011;39568;51.026;5.468;2022-09-20T03:01:42;13.95;;;6.38;;
53666;SDS011;39568;51.026;5.468;2022-09-20T03:04:17;11.55;;;5.97;;
53666;SDS011;39568;51.026;5.468;2022-09-20T03:06:54;16.02;;;5.80;;
53666;SDS011;39568;51.026;5.468;2022-09-20T03:09:28;22.73;;;5.75;;
53666;SDS011;39568;51.026;5.468;2022-09-20T03:12:01;12.82;;;6.13;;
53666;SDS011;39568;51.026;5.468;2022-09-20T03:14:35;16.80;;;5.38;;
53666;SDS011;39568;51.026;5.468;2022-09-20T03:17:05;13.63;;;5.43;;
53666;SDS011;39568;51.026;5.468;2022-09-20T03:19:47;12.32;;;4.93;;
53666;SDS011;39568;51.026;5.468;2022-09-20T03:22:38;18.52;;;4.97;;
53666;SDS011;39568;51.026;5.468;2022-09-20T03:25:21;9.23;;;4.47;;
53666;SDS011;39568;51.026;5.468;2022-09-20T03:28:21;16.27;;;3.88;;
53666;SDS011;39568;51.026;5.468;2022-09-20T03:31:15;12.30;;;4.45;;
53666;SDS011;39568;51.026;5.468;2022-09-20T03:33:54;8.40;;;3.80;;
53666;SDS011;39568;51.026;5.468;2022-09-20T03:36:40;8.18;;;4.20;;
53666;SDS011;39568;51.026;5.468;2022-09-20T03:39:20;5.72;;;3.92;;
53666;SDS011;39568;51.026;5.468;2022-09-20T03:42:12;18.20;;;4.55;;
53666;SDS011;39568;51.026;5.468;2022-09-20T03:45:01;10.88;;;4.35;;
53666;SDS011;39568;51.026;5.468;2022-09-20T03:47:51;10.40;;;4.10;;
53666;SDS011;39568;51.026;5.468;2022-09-20T03:50:37;12.77;;;3.97;;
53666;SDS011;39568;51.026;5.468;2022-09-20T03:53:25;18.20;;;5.22;;
53666;SDS011;39568;51.026;5.468;2022-09-20T03:56:25;5.78;;;4.53;;
53666;SDS011;39568;51.026;5.468;2022-09-20T04:01:49;15.32;;;4.93;;
53666;SDS011;39568;51.026;5.468;2022-09-20T04:04:29;22.55;;;5.50;;
53666;SDS011;39568;51.026;5.468;2022-09-20T04:07:08;6.28;;;3.97;;
53666;SDS011;39568;51.026;5.468;2022-09-20T04:09:53;13.90;;;6.53;;
53666;SDS011;39568;51.026;5.468;2022-09-20T04:12:38;9.00;;;4.10;;
53666;SDS011;39568;51.026;5.468;2022-09-20T04:15:16;14.15;;;3.80;;
53666;SDS011;39568;51.026;5.468;2022-09-20T04:17:51;13.90;;;4.15;;
53666;SDS011;39568;51.026;5.468;2022-09-20T04:20:30;14.70;;;4.80;;
53666;SDS011;39568;51.026;5.468;2022-09-20T04:23:07;16.90;;;4.25;;
53666;SDS011;39568;51.026;5.468;2022-09-20T04:25:43;12.77;;;4.55;;
53666;SDS011;39568;51.026;5.468;2022-09-20T04:28:18;16.40;;;6.45;;
53666;SDS011;39568;51.026;5.468;2022-09-20T04:30:48;9.48;;;5.90;;
53666;SDS011;39568;51.026;5.468;2022-09-20T04:33:22;12.13;;;5.80;;
53666;SDS011;39568;51.026;5.468;2022-09-20T04:35:54;8.63;;;3.88;;
53666;SDS011;39568;51.026;5.468;2022-09-20T04:38:50;9.40;;;3.38;;
53666;SDS011;39568;51.026;5.468;2022-09-20T04:41:31;7.38;;;3.40;;
53666;SDS011;39568;51.026;5.468;2022-09-20T04:44:27;14.13;;;4.15;;
53666;SDS011;39568;51.026;5.468;2022-09-20T04:53:42;9.43;;;4.15;;
53666;SDS011;39568;51.026;5.468;2022-09-20T04:56:19;16.30;;;3.88;;
53666;SDS011;39568;51.026;5.468;2022-09-20T04:58:47;8.10;;;3.13;;
53666;SDS011;39568;51.026;5.468;2022-09-20T05:01:56;14.43;;;3.30;;
53666;SDS011;39568;51.026;5.468;2022-09-20T05:05:03;9.40;;;3.80;;
53666;SDS011;39568;51.026;5.468;2022-09-20T05:14:22;9.70;;;4.78;;
53666;SDS011;39568;51.026;5.468;2022-09-20T05:17:11;9.70;;;4.07;;
53666;SDS011;39568;51.026;5.468;2022-09-20T05:19:46;26.60;;;5.53;;
53666;SDS011;39568;51.026;5.468;2022-09-20T05:25:54;28.05;;;5.30;;
53666;SDS011;39568;51.026;5.468;2022-09-20T05:28:33;18.10;;;5.97;;
53666;SDS011;39568;51.026;5.468;2022-09-20T05:33:39;19.92;;;7.50;;
53666;SDS011;39568;51.026;5.468;2022-09-20T05:36:15;30.55;;;6.78;;
53666;SDS011;39568;51.026;5.468;2022-09-20T05:38:49;51.75;;;10.10;;
53666;SDS011;39568;51.026;5.468;2022-09-20T05:41:26;39.70;;;9.90;;
53666;SDS011;39568;51.026;5.468;2022-09-20T05:44:02;23.80;;;7.63;;
53666;SDS011;39568;51.026;5.468;2022-09-20T05:46:39;20.25;;;7.60;;
53666;SDS011;39568;51.026;5.468;2022-09-20T05:49:19;44.63;;;9.55;;
53666;SDS011;39568;51.026;5.468;2022-09-20T05:52:20;27.70;;;8.40;;
53666;SDS011;39568;51.026;5.468;2022-09-20T05:54:58;24.13;;;6.40;;
53666;SDS011;39568;51.026;5.468;2022-09-20T05:57:47;28.50;;;7.47;;
53666;SDS011;39568;51.026;5.468;2022-09-20T06:00:26;18.85;;;7.95;;
53666;SDS011;39568;51.026;5.468;2022-09-20T06:03:01;21.92;;;7.32;;
53666;SDS011;39568;51.026;5.468;2022-09-20T06:05:39;44.25;;;10.35;;
53666;SDS011;39568;51.026;5.468;2022-09-20T06:08:19;32.63;;;9.15;;
53666;SDS011;39568;51.026;5.468;2022-09-20T06:11:00;35.00;;;7.93;;
53666;SDS011;39568;51.026;5.468;2022-09-20T06:13:52;25.77;;;8.48;;
53666;SDS011;39568;51.026;5.468;2022-09-20T06:16:30;65.22;;;14.00;;
53666;SDS011;39568;51.026;5.468;2022-09-20T06:19:10;61.53;;;13.90;;
53666;SDS011;39568;51.026;5.468;2022-09-20T06:21:47;35.65;;;9.38;;
53666;SDS011;39568;51.026;5.468;2022-09-20T06:24:19;25.38;;;9.63;;
53666;SDS011;39568;51.026;5.468;2022-09-20T06:26:52;29.17;;;9.32;;
53666;SDS011;39568;51.026;5.468;2022-09-20T06:29:25;38.70;;;10.32;;
53666;SDS011;39568;51.026;5.468;2022-09-20T06:31:55;27.73;;;8.48;;
53666;SDS011;39568;51.026;5.468;2022-09-20T06:34:22;18.33;;;6.88;;
53666;SDS011;39568;51.026;5.468;2022-09-20T06:36:51;35.55;;;9.18;;
53666;SDS011;39568;51.026;5.468;2022-09-20T06:39:42;39.40;;;9.93;;
53666;SDS011;39568;51.026;5.468;2022-09-20T06:42:40;41.45;;;10.35;;
53666;SDS011;39568;51.026;5.468;2022-09-20T06:45:08;28.33;;;8.50;;
53666;SDS011;39568;51.026;5.468;2022-09-20T06:47:35;19.02;;;7.57;;
53666;SDS011;39568;51.026;5.468;2022-09-20T06:50:02;20.60;;;7.95;;
53666;SDS011;39568;51.026;5.468;2022-09-20T06:52:36;16.95;;;7.63;;
53666;SDS011;39568;51.026;5.468;2022-09-20T06:55:03;12.65;;;7.88;;
53666;SDS011;39568;51.026;5.468;2022-09-20T06:57:33;24.52;;;8.45;;
53666;SDS011;39568;51.026;5.468;2022-09-20T07:00:02;16.58;;;8.07;;
53666;SDS011;39568;51.026;5.468;2022-09-20T07:02:30;12.75;;;7.57;;
53666;SDS011;39568;51.026;5.468;2022-09-20T07:05:01;20.80;;;7.57;;
53666;SDS011;39568;51.026;5.468;2022-09-20T07:07:28;17.58;;;8.93;;
53666;SDS011;39568;51.026;5.468;2022-09-20T07:09:56;19.30;;;9.27;;
53666;SDS011;39568;51.026;5.468;2022-09-20T07:12:23;9.93;;;7.30;;
53666;SDS011;39568;51.026;5.468;2022-09-20T07:14:50;13.70;;;6.47;;
53666;SDS011;39568;51.026;5.468;2022-09-20T07:17:16;17.48;;;5.57;;
53666;SDS011;39568;51.026;5.468;2022-09-20T07:19:43;13.38;;;8.63;;
53666;SDS011;39568;51.026;5.468;2022-09-20T07:22:14;13.25;;;6.63;;
53666;SDS011;39568;51.026;5.468;2022-09-20T07:24:40;11.88;;;6.43;;
53666;SDS011;39568;51.026;5.468;2022-09-20T07:27:10;21.10;;;8.07;;
53666;SDS011;39568;51.026;5.468;2022-09-20T07:29:37;10.73;;;6.00;;
53666;SDS011;39568;51.026;5.468;2022-09-20T07:32:05;10.15;;;4.45;;
53666;SDS011;39568;51.026;5.468;2022-09-20T07:34:32;13.48;;;4.60;;
53666;SDS011;39568;51.026;5.468;2022-09-20T07:37:01;6.70;;;3.97;;
53666;SDS011;39568;51.026;5.468;2022-09-20T07:39:29;12.88;;;3.70;;
53666;SDS011;39568;51.026;5.468;2022-09-20T07:41:56;4.43;;;3.13;;
53666;SDS011;39568;51.026;5.468;2022-09-20T07:44:24;6.82;;;4.35;;
53666;SDS011;39568;51.026;5.468;2022-09-20T07:46:52;7.32;;;3.45;;
53666;SDS011;39568;51.026;5.468;2022-09-20T07:49:24;5.57;;;3.95;;
53666;SDS011;39568;51.026;5.468;2022-09-20T07:51:54;9.18;;;3.45;;
53666;SDS011;39568;51.026;5.468;2022-09-20T07:54:27;6.10;;;3.40;;
53666;SDS011;39568;51.026;5.468;2022-09-20T07:56:59;8.05;;;2.78;;
53666;SDS011;39568;51.026;5.468;2022-09-20T07:59:27;3.05;;;2.30;;
53666;SDS011;39568;51.026;5.468;2022-09-20T08:01:53;4.80;;;2.65;;
53666;SDS011;39568;51.026;5.468;2022-09-20T08:04:22;4.53;;;3.42;;
53666;SDS011;39568;51.026;5.468;2022-09-20T08:06:49;7.50;;;2.75;;
53666;SDS011;39568;51.026;5.468;2022-09-20T08:09:16;13.52;;;3.72;;
53666;SDS011;39568;51.026;5.468;2022-09-20T08:11:43;9.20;;;3.00;;
53666;SDS011;39568;51.026;5.468;2022-09-20T08:14:11;3.97;;;1.88;;
53666;SDS011;39568;51.026;5.468;2022-09-20T08:16:42;9.27;;;2.55;;
53666;SDS011;39568;51.026;5.468;2022-09-20T08:19:13;2.35;;;2.05;;
53666;SDS011;39568;51.026;5.468;2022-09-20T08:21:41;2.92;;;1.88;;
53666;SDS011;39568;51.026;5.468;2022-09-20T08:24:11;5.53;;;2.35;;
53666;SDS011;39568;51.026;5.468;2022-09-20T08:26:41;4.28;;;2.42;;
53666;SDS011;39568;51.026;5.468;2022-09-20T08:29:08;7.07;;;3.50;;
53666;SDS011;39568;51.026;5.468;2022-09-20T08:31:36;7.30;;;2.47;;
53666;SDS011;39568;51.026;5.468;2022-09-20T08:34:05;6.15;;;2.75;;
53666;SDS011;39568;51.026;5.468;2022-09-20T08:36:34;1.90;;;1.80;;
53666;SDS011;39568;51.026;5.468;2022-09-20T08:39:09;5.57;;;2.58;;
53666;SDS011;39568;51.026;5.468;2022-09-20T08:41:37;2.95;;;1.20;;
53666;SDS011;39568;51.026;5.468;2022-09-20T08:44:11;4.22;;;1.70;;
53666;SDS011;39568;51.026;5.468;2022-09-20T08:46:42;9.85;;;1.27;;
53666;SDS011;39568;51.026;5.468;2022-09-20T08:49:14;4.70;;;1.48;;
53666;SDS011;39568;51.026;5.468;2022-09-20T08:51:44;4.75;;;1.10;;
53666;SDS011;39568;51.026;5.468;2022-09-20T08:54:14;2.38;;;0.73;;
53666;SDS011;39568;51.026;5.468;2022-09-20T08:56:41;5.32;;;1.30;;
53666;SDS011;39568;51.026;5.468;2022-09-20T08:59:12;2.85;;;1.15;;
53666;SDS011;39568;51.026;5.468;2022-09-20T09:01:45;7.10;;;0.70;;
53666;SDS011;39568;51.026;5.468;2022-09-20T09:04:14;5.75;;;1.23;;
53666;SDS011;39568;51.026;5.468;2022-09-20T09:06:43;5.47;;;1.23;;
53666;SDS011;39568;51.026;5.468;2022-09-20T09:09:15;16.70;;;1.13;;
53666;SDS011;39568;51.026;5.468;2022-09-20T09:11:44;5.07;;;1.02;;
53666;SDS011;39568;51.026;5.468;2022-09-20T09:14:15;3.38;;;0.63;;
53666;SDS011;39568;51.026;5.468;2022-09-20T09:17:08;1.75;;;0.75;;
53666;SDS011;39568;51.026;5.468;2022-09-20T09:19:43;0.95;;;0.60;;
53666;SDS011;39568;51.026;5.468;2022-09-20T09:22:13;0.98;;;0.50;;
53666;SDS011;39568;51.026;5.468;2022-09-20T09:24:44;1.50;;;0.82;;
53666;SDS011;39568;51.026;5.468;2022-09-20T09:27:13;0.75;;;0.75;;
53666;SDS011;39568;51.026;5.468;2022-09-20T09:29:47;10.85;;;3.30;;
53666;SDS011;39568;51.026;5.468;2022-09-20T09:32:20;5.88;;;0.95;;
53666;SDS011;39568;51.026;5.468;2022-09-20T09:34:49;0.93;;;0.50;;
53666;SDS011;39568;51.026;5.468;2022-09-20T09:37:26;6.35;;;0.77;;
53666;SDS011;39568;51.026;5.468;2022-09-20T09:42:48;6.25;;;1.13;;
53666;SDS011;39568;51.026;5.468;2022-09-20T09:45:24;5.88;;;0.65;;
53666;SDS011;39568;51.026;5.468;2022-09-20T09:47:55;15.48;;;1.48;;
53666;SDS011;39568;51.026;5.468;2022-09-20T09:50:26;7.30;;;1.45;;
53666;SDS011;39568;51.026;5.468;2022-09-20T09:52:56;1.63;;;0.70;;
53666;SDS011;39568;51.026;5.468;2022-09-20T09:55:24;1.25;;;0.70;;
53666;SDS011;39568;51.026;5.468;2022-09-20T09:57:58;3.40;;;0.43;;
53666;SDS011;39568;51.026;5.468;2022-09-20T10:00:32;5.57;;;0.77;;
53666;SDS011;39568;51.026;5.468;2022-09-20T10:06:08;5.75;;;1.05;;
53666;SDS011;39568;51.026;5.468;2022-09-20T10:08:45;5.50;;;2.22;;
53666;SDS011;39568;51.026;5.468;2022-09-20T10:11:25;7.05;;;0.60;;
53666;SDS011;39568;51.026;5.468;2022-09-20T10:14:00;3.92;;;0.68;;
53666;SDS011;39568;51.026;5.468;2022-09-20T10:16:44;2.80;;;1.25;;
53666;SDS011;39568;51.026;5.468;2022-09-20T10:19:22;4.13;;;0.50;;
53666;SDS011;39568;51.026;5.468;2022-09-20T10:22:01;0.68;;;0.35;;
53666;SDS011;39568;51.026;5.468;2022-09-20T10:24:39;2.47;;;0.60;;
53666;SDS011;39568;51.026;5.468;2022-09-20T10:27:21;3.92;;;0.57;;
53666;SDS011;39568;51.026;5.468;2022-09-20T10:30:01;0.57;;;0.57;;
53666;SDS011;39568;51.026;5.468;2022-09-20T10:32:49;1.00;;;0.63;;
53666;SDS011;39568;51.026;5.468;2022-09-20T10:35:31;5.85;;;0.88;;
53666;SDS011;39568;51.026;5.468;2022-09-20T10:38:15;2.47;;;1.00;;
53666;SDS011;39568;51.026;5.468;2022-09-20T10:40:50;4.40;;;0.90;;
53666;SDS011;39568;51.026;5.468;2022-09-20T10:46:37;7.93;;;1.25;;
53666;SDS011;39568;51.026;5.468;2022-09-20T10:49:19;2.03;;;0.95;;
53666;SDS011;39568;51.026;5.468;2022-09-20T10:51:55;3.10;;;0.70;;
53666;SDS011;39568;51.026;5.468;2022-09-20T10:54:36;1.75;;;0.60;;
53666;SDS011;39568;51.026;5.468;2022-09-20T10:57:24;2.17;;;0.75;;
53666;SDS011;39568;51.026;5.468;2022-09-20T11:00:07;5.80;;;0.80;;
53666;SDS011;39568;51.026;5.468;2022-09-20T11:02:48;4.55;;;0.90;;
53666;SDS011;39568;51.026;5.468;2022-09-20T11:05:29;3.33;;;0.63;;
53666;SDS011;39568;51.026;5.468;2022-09-20T11:08:07;6.38;;;0.52;;
53666;SDS011;39568;51.026;5.468;2022-09-20T11:10:40;0.40;;;0.40;;
53666;SDS011;39568;51.026;5.468;2022-09-20T11:13:11;4.07;;;0.75;;
53666;SDS011;39568;51.026;5.468;2022-09-20T11:15:48;1.38;;;0.38;;
53666;SDS011;39568;51.026;5.468;2022-09-20T11:18:20;3.25;;;0.50;;
53666;SDS011;39568;51.026;5.468;2022-09-20T11:20:53;4.13;;;0.80;;
53666;SDS011;39568;51.026;5.468;2022-09-20T11:23:27;5.05;;;1.80;;
53666;SDS011;39568;51.026;5.468;2022-09-20T11:26:09;3.13;;;0.50;;
53666;SDS011;39568;51.026;5.468;2022-09-20T11:28:38;7.88;;;0.88;;
53666;SDS011;39568;51.026;5.468;2022-09-20T11:31:09;1.58;;;0.75;;
53666;SDS011;39568;51.026;5.468;2022-09-20T11:33:41;4.85;;;0.40;;
53666;SDS011;39568;51.026;5.468;2022-09-20T11:36:12;11.63;;;0.63;;
53666;SDS011;39568;51.026;5.468;2022-09-20T11:38:45;5.82;;;0.75;;
53666;SDS011;39568;51.026;5.468;2022-09-20T11:41:17;18.40;;;1.45;;
53666;SDS011;39568;51.026;5.468;2022-09-20T11:43:47;1.73;;;0.40;;
53666;SDS011;39568;51.026;5.468;2022-09-20T11:46:18;11.50;;;1.85;;
53666;SDS011;39568;51.026;5.468;2022-09-20T11:48:50;0.98;;;0.70;;
53666;SDS011;39568;51.026;5.468;2022-09-20T11:51:39;4.78;;;0.88;;
53666;SDS011;39568;51.026;5.468;2022-09-20T11:57:33;0.90;;;0.75;;
53666;SDS011;39568;51.026;5.468;2022-09-20T12:00:00;2.28;;;1.08;;
53666;SDS011;39568;51.026;5.468;2022-09-20T12:02:31;6.20;;;0.98;;
53666;SDS011;39568;51.026;5.468;2022-09-20T12:05:00;5.47;;;0.77;;
53666;SDS011;39568;51.026;5.468;2022-09-20T12:07:31;4.30;;;0.80;;
53666;SDS011;39568;51.026;5.468;2022-09-20T12:12:34;5.65;;;0.75;;
53666;SDS011;39568;51.026;5.468;2022-09-20T12:15:06;4.30;;;1.20;;
53666;SDS011;39568;51.026;5.468;2022-09-20T12:21:03;2.63;;;0.43;;
53666;SDS011;39568;51.026;5.468;2022-09-20T12:23:44;1.13;;;0.60;;
53666;SDS011;39568;51.026;5.468;2022-09-20T12:26:34;2.42;;;0.70;;
53666;SDS011;39568;51.026;5.468;2022-09-20T12:38:47;7.75;;;1.92;;
53666;SDS011;39568;51.026;5.468;2022-09-20T12:41:20;3.70;;;1.42;;
53666;SDS011;39568;51.026;5.468;2022-09-20T12:43:57;3.22;;;1.40;;
53666;SDS011;39568;51.026;5.468;2022-09-20T12:46:32;1.15;;;0.90;;
53666;SDS011;39568;51.026;5.468;2022-09-20T12:49:09;4.22;;;1.23;;
53666;SDS011;39568;51.026;5.468;2022-09-20T12:52:04;2.75;;;1.70;;
53666;SDS011;39568;51.026;5.468;2022-09-20T12:54:50;6.13;;;1.38;;
53666;SDS011;39568;51.026;5.468;2022-09-20T12:57:25;5.55;;;0.95;;
53666;SDS011;39568;51.026;5.468;2022-09-20T12:59:56;5.50;;;2.25;;
53666;SDS011;39568;51.026;5.468;2022-09-20T13:02:56;7.05;;;0.93;;
53666;SDS011;39568;51.026;5.468;2022-09-20T13:05:36;2.15;;;1.52;;
53666;SDS011;39568;51.026;5.468;2022-09-20T13:08:09;14.27;;;3.00;;
53666;SDS011;39568;51.026;5.468;2022-09-20T13:10:42;7.57;;;1.92;;
53666;SDS011;39568;51.026;5.468;2022-09-20T13:13:16;2.85;;;1.45;;
53666;SDS011;39568;51.026;5.468;2022-09-20T13:15:52;6.97;;;1.95;;
53666;SDS011;39568;51.026;5.468;2022-09-20T13:18:31;9.27;;;1.48;;
53666;SDS011;39568;51.026;5.468;2022-09-20T13:20:59;9.30;;;1.25;;
53666;SDS011;39568;51.026;5.468;2022-09-20T13:26:13;4.75;;;1.30;;
53666;SDS011;39568;51.026;5.468;2022-09-20T13:28:43;6.97;;;1.08;;
53666;SDS011;39568;51.026;5.468;2022-09-20T13:31:22;4.47;;;1.20;;
53666;SDS011;39568;51.026;5.468;2022-09-20T13:33:51;4.50;;;0.80;;
53666;SDS011;39568;51.026;5.468;2022-09-20T13:36:25;1.17;;;0.68;;
53666;SDS011;39568;51.026;5.468;2022-09-20T13:38:56;3.30;;;1.25;;
53666;SDS011;39568;51.026;5.468;2022-09-20T13:41:23;4.60;;;1.40;;
53666;SDS011;39568;51.026;5.468;2022-09-20T13:43:59;9.90;;;1.15;;
53666;SDS011;39568;51.026;5.468;2022-09-20T13:46:28;2.55;;;0.68;;
53666;SDS011;39568;51.026;5.468;2022-09-20T13:49:13;0.50;;;0.50;;
53666;SDS011;39568;51.026;5.468;2022-09-20T13:51:44;3.60;;;0.98;;
53666;SDS011;39568;51.026;5.468;2022-09-20T13:54:25;7.93;;;1.35;;
53666;SDS011;39568;51.026;5.468;2022-09-20T13:56:54;2.55;;;0.75;;
53666;SDS011;39568;51.026;5.468;2022-09-20T13:59:23;3.97;;;0.90;;
53666;SDS011;39568;51.026;5.468;2022-09-20T14:01:52;3.25;;;1.05;;
53666;SDS011;39568;51.026;5.468;2022-09-20T14:04:21;3.53;;;0.82;;
53666;SDS011;39568;51.026;5.468;2022-09-20T14:06:50;8.10;;;1.13;;
53666;SDS011;39568;51.026;5.468;2022-09-20T14:09:22;4.10;;;0.83;;
53666;SDS011;39568;51.026;5.468;2022-09-20T14:11:52;5.07;;;0.90;;
53666;SDS011;39568;51.026;5.468;2022-09-20T14:14:20;3.97;;;1.05;;
53666;SDS011;39568;51.026;5.468;2022-09-20T14:16:49;2.28;;;0.73;;
53666;SDS011;39568;51.026;5.468;2022-09-20T14:19:18;6.88;;;1.00;;
53666;SDS011;39568;51.026;5.468;2022-09-20T14:21:50;3.55;;;2.10;;
53666;SDS011;39568;51.026;5.468;2022-09-20T14:24:22;5.75;;;0.95;;
53666;SDS011;39568;51.026;5.468;2022-09-20T14:27:05;7.00;;;1.30;;
53666;SDS011;39568;51.026;5.468;2022-09-20T14:29:41;9.43;;;1.95;;
53666;SDS011;39568;51.026;5.468;2022-09-20T14:32:22;5.45;;;2.35;;
53666;SDS011;39568;51.026;5.468;2022-09-20T14:34:58;6.72;;;2.38;;
53666;SDS011;39568;51.026;5.468;2022-09-20T14:37:29;9.27;;;3.95;;
53666;SDS011;39568;51.026;5.468;2022-09-20T14:39:58;11.43;;;4.03;;
53666;SDS011;39568;51.026;5.468;2022-09-20T14:42:29;5.43;;;2.60;;
53666;SDS011;39568;51.026;5.468;2022-09-20T14:44:59;19.02;;;2.67;;
53666;SDS011;39568;51.026;5.468;2022-09-20T14:47:26;8.98;;;1.67;;
53666;SDS011;39568;51.026;5.468;2022-09-20T14:50:01;6.65;;;1.40;;
53666;SDS011;39568;51.026;5.468;2022-09-20T14:52:35;8.68;;;3.70;;
53666;SDS011;39568;51.026;5.468;2022-09-20T14:55:18;9.05;;;1.80;;
53666;SDS011;39568;51.026;5.468;2022-09-20T14:57:52;9.90;;;2.33;;
53666;SDS011;39568;51.026;5.468;2022-09-20T15:00:23;4.18;;;1.77;;
53666;SDS011;39568;51.026;5.468;2022-09-20T15:02:53;8.75;;;1.40;;
53666;SDS011;39568;51.026;5.468;2022-09-20T15:05:32;4.85;;;0.85;;
53666;SDS011;39568;51.026;5.468;2022-09-20T15:08:02;3.90;;;1.13;;
53666;SDS011;39568;51.026;5.468;2022-09-20T15:10:29;5.57;;;0.93;;
53666;SDS011;39568;51.026;5.468;2022-09-20T15:12:55;2.95;;;0.90;;
53666;SDS011;39568;51.026;5.468;2022-09-20T15:15:22;9.88;;;1.13;;
53666;SDS011;39568;51.026;5.468;2022-09-20T15:17:49;8.65;;;1.70;;
53666;SDS011;39568;51.026;5.468;2022-09-20T15:20:17;4.00;;;1.52;;
53666;SDS011;39568;51.026;5.468;2022-09-20T15:22:47;4.50;;;1.42;;
53666;SDS011;39568;51.026;5.468;2022-09-20T15:25:14;4.95;;;2.70;;
53666;SDS011;39568;51.026;5.468;2022-09-20T15:27:45;7.43;;;1.80;;
53666;SDS011;39568;51.026;5.468;2022-09-20T15:30:16;12.80;;;1.92;;
53666;SDS011;39568;51.026;5.468;2022-09-20T15:32:46;6.75;;;1.75;;
53666;SDS011;39568;51.026;5.468;2022-09-20T15:35:16;2.92;;;1.55;;
53666;SDS011;39568;51.026;5.468;2022-09-20T15:37:47;6.53;;;1.70;;
53666;SDS011;39568;51.026;5.468;2022-09-20T15:40:14;4.03;;;1.25;;
53666;SDS011;39568;51.026;5.468;2022-09-20T15:42:41;6.53;;;2.20;;
53666;SDS011;39568;51.026;5.468;2022-09-20T15:45:10;22.70;;;5.88;;
53666;SDS011;39568;51.026;5.468;2022-09-20T15:47:38;12.18;;;3.03;;
53666;SDS011;39568;51.026;5.468;2022-09-20T15:50:08;5.47;;;2.37;;
53666;SDS011;39568;51.026;5.468;2022-09-20T15:52:36;5.65;;;2.03;;
53666;SDS011;39568;51.026;5.468;2022-09-20T15:55:06;10.00;;;1.75;;
53666;SDS011;39568;51.026;5.468;2022-09-20T15:57:35;10.10;;;2.08;;
53666;SDS011;39568;51.026;5.468;2022-09-20T16:00:07;4.05;;;1.10;;
53666;SDS011;39568;51.026;5.468;2022-09-20T16:02:53;4.03;;;1.42;;
53666;SDS011;39568;51.026;5.468;2022-09-20T16:05:19;17.85;;;4.57;;
53666;SDS011;39568;51.026;5.468;2022-09-20T16:07:46;12.55;;;2.35;;
53666;SDS011;39568;51.026;5.468;2022-09-20T16:10:14;4.95;;;1.67;;
53666;SDS011;39568;51.026;5.468;2022-09-20T16:12:41;9.07;;;1.58;;
53666;SDS011;39568;51.026;5.468;2022-09-20T16:15:11;4.38;;;1.13;;
53666;SDS011;39568;51.026;5.468;2022-09-20T16:17:37;6.28;;;1.42;;
53666;SDS011;39568;51.026;5.468;2022-09-20T16:20:22;5.65;;;1.40;;
53666;SDS011;39568;51.026;5.468;2022-09-20T16:22:52;10.73;;;0.90;;
53666;SDS011;39568;51.026;5.468;2022-09-20T16:25:22;1.55;;;1.42;;
53666;SDS011;39568;51.026;5.468;2022-09-20T16:27:49;4.47;;;1.70;;
53666;SDS011;39568;51.026;5.468;2022-09-20T16:30:16;3.08;;;0.90;;